sensor_id;sensor_type;location;lat;lon;timestamp;pressure;altitude;pressure_sealevel;temperature;humidity
55315;BME280;41619;42.816;23.226;2023-04-10T00:02:20;95651.38;;;6.70;67.14
55315;BME280;41619;42.816;23.226;2023-04-10T00:04:45;95658.72;;;6.69;67.43
55315;BME280;41619;42.816;23.226;2023-04-10T00:07:11;95658.72;;;6.69;67.50
55315;BME280;41619;42.816;23.226;2023-04-10T00:09:37;95649.31;;;6.66;67.69
55315;BME280;41619;42.816;23.226;2023-04-10T00:12:02;95652.34;;;6.65;67.70
55315;BME280;41619;42.816;23.226;2023-04-10T00:14:28;95649.19;;;6.63;67.34
55315;BME280;41619;42.816;23.226;2023-04-10T00:16:53;95651.09;;;6.62;67.41
55315;BME280;41619;42.816;23.226;2023-04-10T00:19:18;95650.66;;;6.60;67.66
55315;BME280;41619;42.816;23.226;2023-04-10T00:21:44;95648.72;;;6.61;67.43
55315;BME280;41619;42.816;23.226;2023-04-10T00:24:10;95641.69;;;6.60;67.97
55315;BME280;41619;42.816;23.226;2023-04-10T00:26:35;95640.09;;;6.59;68.13
55315;BME280;41619;42.816;23.226;2023-04-10T00:29:04;95644.75;;;6.58;68.22
55315;BME280;41619;42.816;23.226;2023-04-10T00:31:29;95632.63;;;6.56;68.18
55315;BME280;41619;42.816;23.226;2023-04-10T00:33:55;95632.97;;;6.54;68.15
55315;BME280;41619;42.816;23.226;2023-04-10T00:36:21;95637.59;;;6.54;68.41
55315;BME280;41619;42.816;23.226;2023-04-10T00:38:46;95637.47;;;6.50;67.86
55315;BME280;41619;42.816;23.226;2023-04-10T00:41:12;95637.47;;;6.50;67.31
55315;BME280;41619;42.816;23.226;2023-04-10T00:43:37;95635.06;;;6.49;67.62
55315;BME280;41619;42.816;23.226;2023-04-10T00:46:03;95642.09;;;6.50;67.04
55315;BME280;41619;42.816;23.226;2023-04-10T00:48:31;95639.72;;;6.48;67.83
55315;BME280;41619;42.816;23.226;2023-04-10T00:50:56;95642.91;;;6.50;67.63
55315;BME280;41619;42.816;23.226;2023-04-10T00:53:21;95633.16;;;6.49;67.89
55315;BME280;41619;42.816;23.226;2023-04-10T00:55:48;95631.91;;;6.47;67.82
55315;BME280;41619;42.816;23.226;2023-04-10T00:58:14;95638.81;;;6.44;68.25
55315;BME280;41619;42.816;23.226;2023-04-10T01:00:40;95631.31;;;6.41;68.25
55315;BME280;41619;42.816;23.226;2023-04-10T01:03:10;95635.63;;;6.42;68.18
55315;BME280;41619;42.816;23.226;2023-04-10T01:08:42;95629.94;;;6.35;67.80
55315;BME280;41619;42.816;23.226;2023-04-10T01:11:26;95623.25;;;6.32;68.34
55315;BME280;41619;42.816;23.226;2023-04-10T01:16:51;95611.09;;;6.30;68.47
55315;BME280;41619;42.816;23.226;2023-04-10T01:19:57;95620.06;;;6.30;68.96
55315;BME280;41619;42.816;23.226;2023-04-10T01:30:33;95612.56;;;6.27;68.68
55315;BME280;41619;42.816;23.226;2023-04-10T01:33:00;95607.81;;;6.24;68.80
55315;BME280;41619;42.816;23.226;2023-04-10T01:35:28;95610.53;;;6.24;68.85
55315;BME280;41619;42.816;23.226;2023-04-10T01:37:56;95617.75;;;6.20;69.42
55315;BME280;41619;42.816;23.226;2023-04-10T01:40:24;95612.66;;;6.19;69.24
55315;BME280;41619;42.816;23.226;2023-04-10T01:42:54;95609.47;;;6.17;69.71
55315;BME280;41619;42.816;23.226;2023-04-10T01:45:22;95613.19;;;6.12;69.63
55315;BME280;41619;42.816;23.226;2023-04-10T01:47:48;95612.94;;;6.05;69.13
55315;BME280;41619;42.816;23.226;2023-04-10T01:50:15;95618.44;;;5.96;69.77
55315;BME280;41619;42.816;23.226;2023-04-10T01:52:41;95613.81;;;5.88;70.01
55315;BME280;41619;42.816;23.226;2023-04-10T01:55:08;95617.88;;;5.82;70.01
55315;BME280;41619;42.816;23.226;2023-04-10T01:57:34;95616.16;;;5.77;69.96
55315;BME280;41619;42.816;23.226;2023-04-10T02:00:01;95619.16;;;5.76;70.14
55315;BME280;41619;42.816;23.226;2023-04-10T02:02:31;95620.97;;;5.72;70.51
55315;BME280;41619;42.816;23.226;2023-04-10T02:04:57;95619.56;;;5.66;70.72
55315;BME280;41619;42.816;23.226;2023-04-10T02:07:41;95616.72;;;5.62;70.77
55315;BME280;41619;42.816;23.226;2023-04-10T02:12:45;95606.84;;;5.58;71.04
55315;BME280;41619;42.816;23.226;2023-04-10T02:15:13;95599.34;;;5.55;71.23
55315;BME280;41619;42.816;23.226;2023-04-10T02:17:41;95596.50;;;5.51;71.80
55315;BME280;41619;42.816;23.226;2023-04-10T02:20:07;95598.28;;;5.47;72.27
55315;BME280;41619;42.816;23.226;2023-04-10T02:22:33;95592.28;;;5.41;72.01
55315;BME280;41619;42.816;23.226;2023-04-10T02:25:03;95595.16;;;5.36;71.96
55315;BME280;41619;42.816;23.226;2023-04-10T02:27:33;95596.94;;;5.32;72.41
55315;BME280;41619;42.816;23.226;2023-04-10T02:30:00;95590.13;;;5.26;72.64
55315;BME280;41619;42.816;23.226;2023-04-10T02:32:28;95592.22;;;5.21;73.06
55315;BME280;41619;42.816;23.226;2023-04-10T02:34:54;95586.97;;;5.15;73.51
55315;BME280;41619;42.816;23.226;2023-04-10T02:37:20;95586.19;;;5.15;73.54
55315;BME280;41619;42.816;23.226;2023-04-10T02:39:46;95586.03;;;5.11;73.87
55315;BME280;41619;42.816;23.226;2023-04-10T02:42:11;95581.94;;;5.05;73.44
55315;BME280;41619;42.816;23.226;2023-04-10T02:44:36;95572.53;;;5.03;73.22
55315;BME280;41619;42.816;23.226;2023-04-10T02:47:03;95575.53;;;5.01;73.63
55315;BME280;41619;42.816;23.226;2023-04-10T02:49:29;95579.69;;;4.99;73.49
55315;BME280;41619;42.816;23.226;2023-04-10T02:51:54;95573.34;;;4.95;73.53
55315;BME280;41619;42.816;23.226;2023-04-10T02:54:19;95580.22;;;4.92;74.02
55315;BME280;41619;42.816;23.226;2023-04-10T02:56:45;95567.78;;;4.91;74.00
55315;BME280;41619;42.816;23.226;2023-04-10T02:59:11;95569.25;;;4.89;74.14
55315;BME280;41619;42.816;23.226;2023-04-10T03:01:37;95567.97;;;4.86;74.30
55315;BME280;41619;42.816;23.226;2023-04-10T03:04:03;95575.94;;;4.82;74.52
55315;BME280;41619;42.816;23.226;2023-04-10T03:06:29;95571.63;;;4.81;74.75
55315;BME280;41619;42.816;23.226;2023-04-10T03:08:55;95572.28;;;4.78;74.46
55315;BME280;41619;42.816;23.226;2023-04-10T03:11:20;95575.66;;;4.75;74.99
55315;BME280;41619;42.816;23.226;2023-04-10T03:13:46;95576.19;;;4.69;74.62
55315;BME280;41619;42.816;23.226;2023-04-10T03:16:13;95571.69;;;4.64;75.10
55315;BME280;41619;42.816;23.226;2023-04-10T03:18:38;95577.31;;;4.59;74.80
55315;BME280;41619;42.816;23.226;2023-04-10T03:21:04;95579.41;;;4.53;75.16
55315;BME280;41619;42.816;23.226;2023-04-10T03:23:29;95578.00;;;4.47;75.02
55315;BME280;41619;42.816;23.226;2023-04-10T03:25:55;95583.56;;;4.42;75.01
55315;BME280;41619;42.816;23.226;2023-04-10T03:28:20;95580.25;;;4.37;75.21
55315;BME280;41619;42.816;23.226;2023-04-10T03:30:47;95580.09;;;4.33;75.26
55315;BME280;41619;42.816;23.226;2023-04-10T03:33:12;95590.78;;;4.30;75.65
55315;BME280;41619;42.816;23.226;2023-04-10T03:35:38;95589.81;;;4.25;75.36
55315;BME280;41619;42.816;23.226;2023-04-10T03:38:03;95596.69;;;4.23;75.70
55315;BME280;41619;42.816;23.226;2023-04-10T03:40:28;95591.44;;;4.18;75.83
55315;BME280;41619;42.816;23.226;2023-04-10T03:42:54;95598.28;;;4.15;75.87
55315;BME280;41619;42.816;23.226;2023-04-10T03:45:19;95594.00;;;4.14;75.92
55315;BME280;41619;42.816;23.226;2023-04-10T03:47:45;95596.22;;;4.12;75.81
55315;BME280;41619;42.816;23.226;2023-04-10T03:50:11;95593.34;;;4.09;75.53
55315;BME280;41619;42.816;23.226;2023-04-10T03:52:36;95590.47;;;4.05;76.09
55315;BME280;41619;42.816;23.226;2023-04-10T03:55:02;95591.44;;;4.01;75.82
55315;BME280;41619;42.816;23.226;2023-04-10T03:57:27;95594.78;;;3.98;75.97
55315;BME280;41619;42.816;23.226;2023-04-10T03:59:53;95596.56;;;3.93;76.12
55315;BME280;41619;42.816;23.226;2023-04-10T04:02:18;95597.19;;;3.90;76.03
55315;BME280;41619;42.816;23.226;2023-04-10T04:04:44;95606.25;;;3.86;76.05
55315;BME280;41619;42.816;23.226;2023-04-10T04:07:09;95607.69;;;3.83;76.03
55315;BME280;41619;42.816;23.226;2023-04-10T04:09:36;95602.91;;;3.80;75.97
55315;BME280;41619;42.816;23.226;2023-04-10T04:12:01;95598.94;;;3.78;76.21
55315;BME280;41619;42.816;23.226;2023-04-10T04:14:27;95605.47;;;3.77;76.55
55315;BME280;41619;42.816;23.226;2023-04-10T04:16:52;95613.59;;;3.77;76.41
55315;BME280;41619;42.816;23.226;2023-04-10T04:19:17;95610.88;;;3.77;76.68
55315;BME280;41619;42.816;23.226;2023-04-10T04:21:43;95613.91;;;3.75;76.32
55315;BME280;41619;42.816;23.226;2023-04-10T04:24:08;95603.88;;;3.76;76.68
55315;BME280;41619;42.816;23.226;2023-04-10T04:26:35;95607.06;;;3.78;76.36
55315;BME280;41619;42.816;23.226;2023-04-10T04:29:00;95614.38;;;3.77;76.32
55315;BME280;41619;42.816;23.226;2023-04-10T04:31:26;95612.47;;;3.78;76.40
55315;BME280;41619;42.816;23.226;2023-04-10T04:33:59;95615.97;;;3.78;76.06
55315;BME280;41619;42.816;23.226;2023-04-10T04:36:25;95616.47;;;3.80;76.60
55315;BME280;41619;42.816;23.226;2023-04-10T04:38:52;95615.81;;;3.83;76.49
55315;BME280;41619;42.816;23.226;2023-04-10T04:41:17;95608.97;;;3.86;76.44
55315;BME280;41619;42.816;23.226;2023-04-10T04:43:43;95614.06;;;3.87;76.59
55315;BME280;41619;42.816;23.226;2023-04-10T04:46:08;95613.44;;;3.90;76.66
55315;BME280;41619;42.816;23.226;2023-04-10T04:48:34;95620.13;;;3.93;76.70
55315;BME280;41619;42.816;23.226;2023-04-10T04:50:59;95618.06;;;3.99;76.71
55315;BME280;41619;42.816;23.226;2023-04-10T04:53:25;95624.09;;;4.04;76.14
55315;BME280;41619;42.816;23.226;2023-04-10T04:55:50;95620.13;;;4.10;76.59
55315;BME280;41619;42.816;23.226;2023-04-10T04:58:16;95623.16;;;4.17;76.91
55315;BME280;41619;42.816;23.226;2023-04-10T05:00:41;95631.75;;;4.19;76.48
55315;BME280;41619;42.816;23.226;2023-04-10T05:03:07;95629.50;;;4.21;76.52
55315;BME280;41619;42.816;23.226;2023-04-10T05:05:32;95622.97;;;4.22;76.12
55315;BME280;41619;42.816;23.226;2023-04-10T05:07:57;95635.88;;;4.25;75.96
55315;BME280;41619;42.816;23.226;2023-04-10T05:10:23;95630.00;;;4.32;75.98
55315;BME280;41619;42.816;23.226;2023-04-10T05:12:48;95631.41;;;4.38;76.47
55315;BME280;41619;42.816;23.226;2023-04-10T05:15:14;95630.44;;;4.43;76.16
55315;BME280;41619;42.816;23.226;2023-04-10T05:17:39;95639.84;;;4.54;75.92
55315;BME280;41619;42.816;23.226;2023-04-10T05:20:05;95630.41;;;4.69;75.83
55315;BME280;41619;42.816;23.226;2023-04-10T05:22:31;95631.63;;;4.80;75.61
55315;BME280;41619;42.816;23.226;2023-04-10T05:24:56;95624.75;;;4.91;75.87
55315;BME280;41619;42.816;23.226;2023-04-10T05:27:22;95636.19;;;5.05;76.20
55315;BME280;41619;42.816;23.226;2023-04-10T05:29:47;95621.13;;;5.16;75.73
55315;BME280;41619;42.816;23.226;2023-04-10T05:32:13;95638.97;;;5.26;75.18
55315;BME280;41619;42.816;23.226;2023-04-10T05:34:39;95630.91;;;5.38;74.98
55315;BME280;41619;42.816;23.226;2023-04-10T05:37:04;95631.00;;;5.51;75.77
55315;BME280;41619;42.816;23.226;2023-04-10T05:39:30;95629.19;;;5.63;74.86
55315;BME280;41619;42.816;23.226;2023-04-10T05:41:55;95637.09;;;5.77;74.95
55315;BME280;41619;42.816;23.226;2023-04-10T05:44:22;95625.63;;;5.92;74.86
55315;BME280;41619;42.816;23.226;2023-04-10T05:46:47;95629.19;;;6.14;74.78
55315;BME280;41619;42.816;23.226;2023-04-10T05:49:13;95622.72;;;6.39;74.81
55315;BME280;41619;42.816;23.226;2023-04-10T05:51:38;95626.75;;;6.66;74.21
55315;BME280;41619;42.816;23.226;2023-04-10T05:54:04;95620.94;;;6.88;73.65
55315;BME280;41619;42.816;23.226;2023-04-10T05:56:29;95618.59;;;7.11;73.35
55315;BME280;41619;42.816;23.226;2023-04-10T05:58:54;95624.72;;;7.33;72.42
55315;BME280;41619;42.816;23.226;2023-04-10T06:01:20;95614.06;;;7.52;72.27
55315;BME280;41619;42.816;23.226;2023-04-10T06:03:45;95612.13;;;7.65;71.79
55315;BME280;41619;42.816;23.226;2023-04-10T06:06:11;95615.50;;;7.74;71.18
55315;BME280;41619;42.816;23.226;2023-04-10T06:08:36;95625.81;;;7.80;70.88
55315;BME280;41619;42.816;23.226;2023-04-10T06:11:02;95621.28;;;7.84;70.54
55315;BME280;41619;42.816;23.226;2023-04-10T06:13:27;95627.63;;;7.88;70.31
55315;BME280;41619;42.816;23.226;2023-04-10T06:15:53;95622.28;;;7.92;69.68
55315;BME280;41619;42.816;23.226;2023-04-10T06:18:18;95609.53;;;7.96;69.62
55315;BME280;41619;42.816;23.226;2023-04-10T06:20:43;95611.56;;;7.99;69.23
55315;BME280;41619;42.816;23.226;2023-04-10T06:23:09;95620.34;;;8.05;69.24
55315;BME280;41619;42.816;23.226;2023-04-10T06:25:36;95615.97;;;8.16;68.81
55315;BME280;41619;42.816;23.226;2023-04-10T06:28:01;95615.84;;;8.37;67.88
55315;BME280;41619;42.816;23.226;2023-04-10T06:30:26;95608.34;;;8.62;67.42
55315;BME280;41619;42.816;23.226;2023-04-10T06:32:52;95611.34;;;8.88;67.19
55315;BME280;41619;42.816;23.226;2023-04-10T06:35:17;95610.09;;;9.14;66.58
55315;BME280;41619;42.816;23.226;2023-04-10T06:37:42;95611.84;;;9.37;66.11
55315;BME280;41619;42.816;23.226;2023-04-10T06:40:09;95603.56;;;9.50;65.63
55315;BME280;41619;42.816;23.226;2023-04-10T06:42:36;95613.13;;;9.59;65.21
55315;BME280;41619;42.816;23.226;2023-04-10T06:45:02;95604.13;;;9.75;64.89
55315;BME280;41619;42.816;23.226;2023-04-10T06:47:28;95613.50;;;9.93;64.18
55315;BME280;41619;42.816;23.226;2023-04-10T06:49:54;95613.09;;;10.10;63.80
55315;BME280;41619;42.816;23.226;2023-04-10T06:52:20;95614.13;;;10.21;63.47
55315;BME280;41619;42.816;23.226;2023-04-10T06:54:45;95620.88;;;10.24;63.03
55315;BME280;41619;42.816;23.226;2023-04-10T06:57:10;95615.41;;;10.24;62.81
55315;BME280;41619;42.816;23.226;2023-04-10T06:59:36;95625.19;;;10.25;62.91
55315;BME280;41619;42.816;23.226;2023-04-10T07:02:02;95625.88;;;10.22;62.72
55315;BME280;41619;42.816;23.226;2023-04-10T07:04:27;95627.34;;;10.19;62.62
55315;BME280;41619;42.816;23.226;2023-04-10T07:06:53;95619.16;;;10.19;62.40
55315;BME280;41619;42.816;23.226;2023-04-10T07:09:18;95629.88;;;10.44;61.80
55315;BME280;41619;42.816;23.226;2023-04-10T07:11:44;95620.44;;;10.60;61.09
55315;BME280;41619;42.816;23.226;2023-04-10T07:14:10;95623.19;;;10.60;60.89
55315;BME280;41619;42.816;23.226;2023-04-10T07:16:35;95629.28;;;10.54;60.65
55315;BME280;41619;42.816;23.226;2023-04-10T07:19:01;95634.19;;;10.45;60.42
55315;BME280;41619;42.816;23.226;2023-04-10T07:21:26;95630.66;;;10.25;60.36
55315;BME280;41619;42.816;23.226;2023-04-10T07:23:52;95627.75;;;10.02;59.94
55315;BME280;41619;42.816;23.226;2023-04-10T07:26:18;95625.09;;;9.86;60.21
55315;BME280;41619;42.816;23.226;2023-04-10T07:28:43;95624.19;;;9.82;60.46
55315;BME280;41619;42.816;23.226;2023-04-10T07:31:10;95630.38;;;9.79;60.64
55315;BME280;41619;42.816;23.226;2023-04-10T07:33:36;95625.63;;;9.76;60.78
55315;BME280;41619;42.816;23.226;2023-04-10T07:36:02;95629.06;;;9.73;60.75
55315;BME280;41619;42.816;23.226;2023-04-10T07:38:27;95629.66;;;9.82;60.64
55315;BME280;41619;42.816;23.226;2023-04-10T07:40:56;95628.84;;;9.97;60.33
55315;BME280;41619;42.816;23.226;2023-04-10T07:43:22;95625.78;;;10.18;59.74
55315;BME280;41619;42.816;23.226;2023-04-10T07:45:47;95624.53;;;10.31;59.04
55315;BME280;41619;42.816;23.226;2023-04-10T07:48:13;95630.44;;;10.34;58.95
55315;BME280;41619;42.816;23.226;2023-04-10T07:50:38;95630.06;;;10.35;58.41
55315;BME280;41619;42.816;23.226;2023-04-10T07:53:04;95636.69;;;10.34;58.25
55315;BME280;41619;42.816;23.226;2023-04-10T07:55:45;95627.34;;;10.35;57.93
55315;BME280;41619;42.816;23.226;2023-04-10T07:58:13;95632.81;;;10.35;58.09
55315;BME280;41619;42.816;23.226;2023-04-10T08:00:39;95630.44;;;10.34;57.50
55315;BME280;41619;42.816;23.226;2023-04-10T08:03:05;95631.66;;;10.36;57.82
55315;BME280;41619;42.816;23.226;2023-04-10T08:05:31;95628.28;;;10.43;57.42
55315;BME280;41619;42.816;23.226;2023-04-10T08:07:56;95625.03;;;10.56;57.62
55315;BME280;41619;42.816;23.226;2023-04-10T08:10:21;95620.13;;;10.66;57.33
55315;BME280;41619;42.816;23.226;2023-04-10T08:12:47;95620.31;;;10.76;57.52
55315;BME280;41619;42.816;23.226;2023-04-10T08:15:13;95623.59;;;10.82;57.09
55315;BME280;41619;42.816;23.226;2023-04-10T08:17:38;95619.69;;;10.83;56.69
55315;BME280;41619;42.816;23.226;2023-04-10T08:20:04;95624.06;;;10.87;56.50
55315;BME280;41619;42.816;23.226;2023-04-10T08:22:30;95629.44;;;11.03;56.47
55315;BME280;41619;42.816;23.226;2023-04-10T08:24:56;95623.25;;;11.29;55.74
55315;BME280;41619;42.816;23.226;2023-04-10T08:27:21;95618.13;;;11.50;54.62
55315;BME280;41619;42.816;23.226;2023-04-10T08:29:46;95620.66;;;11.86;54.42
55315;BME280;41619;42.816;23.226;2023-04-10T08:32:12;95623.41;;;12.12;53.70
55315;BME280;41619;42.816;23.226;2023-04-10T08:34:37;95613.38;;;12.27;53.43
55315;BME280;41619;42.816;23.226;2023-04-10T08:37:06;95616.59;;;12.29;53.72
55315;BME280;41619;42.816;23.226;2023-04-10T08:39:37;95614.06;;;12.17;53.41
55315;BME280;41619;42.816;23.226;2023-04-10T08:42:04;95607.94;;;12.00;53.55
55315;BME280;41619;42.816;23.226;2023-04-10T08:44:30;95611.63;;;11.85;53.55
55315;BME280;41619;42.816;23.226;2023-04-10T08:46:59;95617.38;;;11.76;53.56
55315;BME280;41619;42.816;23.226;2023-04-10T08:49:38;95610.91;;;11.65;53.83
55315;BME280;41619;42.816;23.226;2023-04-10T08:52:06;95615.47;;;11.54;53.73
55315;BME280;41619;42.816;23.226;2023-04-10T08:54:34;95615.59;;;11.38;53.72
55315;BME280;41619;42.816;23.226;2023-04-10T08:57:00;95610.28;;;11.26;53.87
55315;BME280;41619;42.816;23.226;2023-04-10T08:59:29;95602.59;;;11.12;53.49
55315;BME280;41619;42.816;23.226;2023-04-10T09:01:56;95607.13;;;11.01;53.11
55315;BME280;41619;42.816;23.226;2023-04-10T09:04:23;95609.16;;;10.85;53.12
55315;BME280;41619;42.816;23.226;2023-04-10T09:06:48;95604.16;;;10.68;53.09
55315;BME280;41619;42.816;23.226;2023-04-10T09:09:14;95610.91;;;10.54;53.42
55315;BME280;41619;42.816;23.226;2023-04-10T09:14:24;95604.34;;;10.40;53.51
55315;BME280;41619;42.816;23.226;2023-04-10T09:16:51;95607.69;;;10.29;53.51
55315;BME280;41619;42.816;23.226;2023-04-10T09:19:32;95602.03;;;10.22;53.99
55315;BME280;41619;42.816;23.226;2023-04-10T09:21:58;95601.53;;;10.17;54.19
55315;BME280;41619;42.816;23.226;2023-04-10T09:24:26;95600.22;;;10.11;54.35
55315;BME280;41619;42.816;23.226;2023-04-10T09:26:52;95602.09;;;10.07;54.71
55315;BME280;41619;42.816;23.226;2023-04-10T09:29:18;95608.19;;;10.00;54.96
55315;BME280;41619;42.816;23.226;2023-04-10T09:31:44;95601.44;;;9.94;55.13
55315;BME280;41619;42.816;23.226;2023-04-10T09:34:17;95599.34;;;9.87;55.12
55315;BME280;41619;42.816;23.226;2023-04-10T09:37:02;95605.16;;;9.86;55.39
55315;BME280;41619;42.816;23.226;2023-04-10T09:39:38;95609.97;;;9.92;55.64
55315;BME280;41619;42.816;23.226;2023-04-10T09:42:08;95604.16;;;9.94;55.73
55315;BME280;41619;42.816;23.226;2023-04-10T09:44:37;95612.72;;;9.92;56.23
55315;BME280;41619;42.816;23.226;2023-04-10T09:49:57;95623.53;;;9.69;57.91
55315;BME280;41619;42.816;23.226;2023-04-10T09:52:33;95618.34;;;9.49;58.55
55315;BME280;41619;42.816;23.226;2023-04-10T09:55:00;95618.38;;;9.33;58.99
55315;BME280;41619;42.816;23.226;2023-04-10T09:57:27;95624.09;;;9.12;58.84
55315;BME280;41619;42.816;23.226;2023-04-10T09:59:55;95616.22;;;8.95;59.90
55315;BME280;41619;42.816;23.226;2023-04-10T10:02:22;95615.22;;;8.87;60.06
55315;BME280;41619;42.816;23.226;2023-04-10T10:04:49;95609.25;;;8.82;60.56
55315;BME280;41619;42.816;23.226;2023-04-10T10:07:16;95614.63;;;8.78;60.50
55315;BME280;41619;42.816;23.226;2023-04-10T10:09:43;95609.06;;;8.74;60.51
55315;BME280;41619;42.816;23.226;2023-04-10T10:12:18;95603.16;;;8.72;60.24
55315;BME280;41619;42.816;23.226;2023-04-10T10:15:09;95592.44;;;8.79;60.29
55315;BME280;41619;42.816;23.226;2023-04-10T10:20:19;95588.41;;;9.21;60.20
55315;BME280;41619;42.816;23.226;2023-04-10T10:22:47;95589.09;;;9.49;59.58
55315;BME280;41619;42.816;23.226;2023-04-10T10:25:15;95589.22;;;9.72;59.40
55315;BME280;41619;42.816;23.226;2023-04-10T10:27:40;95586.03;;;9.86;59.18
55315;BME280;41619;42.816;23.226;2023-04-10T10:30:08;95580.63;;;9.89;59.21
55315;BME280;41619;42.816;23.226;2023-04-10T10:32:34;95579.13;;;9.92;59.42
55315;BME280;41619;42.816;23.226;2023-04-10T10:35:01;95579.13;;;9.92;59.62
55315;BME280;41619;42.816;23.226;2023-04-10T10:37:28;95575.97;;;9.90;59.60
55315;BME280;41619;42.816;23.226;2023-04-10T10:40:03;95567.94;;;9.81;59.20
55315;BME280;41619;42.816;23.226;2023-04-10T10:45:49;95561.44;;;9.86;58.96
55315;BME280;41619;42.816;23.226;2023-04-10T10:48:15;95560.78;;;9.92;58.34
55315;BME280;41619;42.816;23.226;2023-04-10T10:53:42;95540.19;;;10.18;58.54
55315;BME280;41619;42.816;23.226;2023-04-10T10:58:48;95533.50;;;10.54;57.80
55315;BME280;41619;42.816;23.226;2023-04-10T11:01:14;95529.19;;;10.76;57.56
55315;BME280;41619;42.816;23.226;2023-04-10T11:03:41;95523.59;;;11.14;56.70
55315;BME280;41619;42.816;23.226;2023-04-10T11:06:10;95518.75;;;11.53;55.87
55315;BME280;41619;42.816;23.226;2023-04-10T11:08:39;95520.34;;;11.85;55.49
55315;BME280;41619;42.816;23.226;2023-04-10T11:13:37;95533.63;;;12.09;55.60
55315;BME280;41619;42.816;23.226;2023-04-10T11:16:05;95532.47;;;12.10;55.62
55315;BME280;41619;42.816;23.226;2023-04-10T11:21:18;95518.84;;;12.54;55.53
55315;BME280;41619;42.816;23.226;2023-04-10T11:28:57;95524.06;;;13.51;53.25
55315;BME280;41619;42.816;23.226;2023-04-10T11:31:23;95522.47;;;13.47;53.08
55315;BME280;41619;42.816;23.226;2023-04-10T11:33:59;95520.75;;;13.31;52.56
55315;BME280;41619;42.816;23.226;2023-04-10T11:36:25;95512.81;;;13.19;52.06
55315;BME280;41619;42.816;23.226;2023-04-10T11:39:02;95507.63;;;13.14;52.01
55315;BME280;41619;42.816;23.226;2023-04-10T11:41:37;95500.53;;;13.10;51.27
55315;BME280;41619;42.816;23.226;2023-04-10T11:44:08;95493.81;;;13.03;51.37
55315;BME280;41619;42.816;23.226;2023-04-10T11:46:42;95504.03;;;13.03;51.51
55315;BME280;41619;42.816;23.226;2023-04-10T11:49:09;95494.63;;;13.08;51.16
55315;BME280;41619;42.816;23.226;2023-04-10T11:51:38;95493.53;;;13.16;51.47
55315;BME280;41619;42.816;23.226;2023-04-10T11:56:33;95487.59;;;13.61;50.75
55315;BME280;41619;42.816;23.226;2023-04-10T11:58:59;95480.25;;;13.87;50.15
55315;BME280;41619;42.816;23.226;2023-04-10T12:01:24;95481.53;;;14.04;49.91
55315;BME280;41619;42.816;23.226;2023-04-10T12:03:50;95485.47;;;14.10;49.38
55315;BME280;41619;42.816;23.226;2023-04-10T12:06:15;95485.88;;;14.08;48.93
55315;BME280;41619;42.816;23.226;2023-04-10T12:08:43;95481.47;;;13.93;48.62
55315;BME280;41619;42.816;23.226;2023-04-10T12:11:10;95481.75;;;13.70;48.42
55315;BME280;41619;42.816;23.226;2023-04-10T12:13:37;95481.91;;;13.33;48.52
55315;BME280;41619;42.816;23.226;2023-04-10T12:16:05;95479.25;;;12.99;48.92
55315;BME280;41619;42.816;23.226;2023-04-10T12:18:31;95477.84;;;12.72;48.68
55315;BME280;41619;42.816;23.226;2023-04-10T12:20:57;95465.91;;;12.54;48.74
55315;BME280;41619;42.816;23.226;2023-04-10T12:23:24;95473.31;;;12.50;49.01
55315;BME280;41619;42.816;23.226;2023-04-10T12:25:51;95475.69;;;12.51;48.76
55315;BME280;41619;42.816;23.226;2023-04-10T12:28:18;95462.44;;;12.60;49.00
55315;BME280;41619;42.816;23.226;2023-04-10T12:30:51;95459.75;;;12.67;48.69
55315;BME280;41619;42.816;23.226;2023-04-10T12:33:22;95462.91;;;12.66;47.76
55315;BME280;41619;42.816;23.226;2023-04-10T12:35:47;95462.84;;;12.62;47.99
55315;BME280;41619;42.816;23.226;2023-04-10T12:38:13;95458.91;;;12.60;47.99
55315;BME280;41619;42.816;23.226;2023-04-10T12:40:56;95471.81;;;12.56;48.24
55315;BME280;41619;42.816;23.226;2023-04-10T12:44:05;95470.88;;;12.44;47.75
55315;BME280;41619;42.816;23.226;2023-04-10T12:46:30;95468.69;;;12.20;47.80
55315;BME280;41619;42.816;23.226;2023-04-10T12:49:16;95464.88;;;11.95;47.95
55315;BME280;41619;42.816;23.226;2023-04-10T12:51:47;95464.50;;;11.70;49.19
55315;BME280;41619;42.816;23.226;2023-04-10T12:56:52;95482.88;;;10.64;52.95
55315;BME280;41619;42.816;23.226;2023-04-10T12:59:18;95480.91;;;10.22;54.40
55315;BME280;41619;42.816;23.226;2023-04-10T13:01:43;95484.16;;;9.89;55.77
55315;BME280;41619;42.816;23.226;2023-04-10T13:04:08;95481.63;;;9.61;56.44
55315;BME280;41619;42.816;23.226;2023-04-10T13:06:43;95479.34;;;9.47;56.58
55315;BME280;41619;42.816;23.226;2023-04-10T13:09:13;95473.31;;;9.38;57.45
55315;BME280;41619;42.816;23.226;2023-04-10T13:11:40;95462.16;;;9.27;58.10
55315;BME280;41619;42.816;23.226;2023-04-10T13:14:06;95460.94;;;9.25;58.82
55315;BME280;41619;42.816;23.226;2023-04-10T13:16:32;95460.06;;;9.21;59.38
55315;BME280;41619;42.816;23.226;2023-04-10T13:18:57;95456.53;;;9.20;59.93
55315;BME280;41619;42.816;23.226;2023-04-10T13:21:22;95445.69;;;9.24;59.89
55315;BME280;41619;42.816;23.226;2023-04-10T13:23:51;95445.16;;;9.34;59.56
55315;BME280;41619;42.816;23.226;2023-04-10T13:26:16;95444.50;;;9.40;59.27
55315;BME280;41619;42.816;23.226;2023-04-10T13:28:42;95435.31;;;9.49;59.37
55315;BME280;41619;42.816;23.226;2023-04-10T13:31:08;95434.00;;;9.62;59.02
55315;BME280;41619;42.816;23.226;2023-04-10T13:33:33;95435.53;;;9.79;58.85
55315;BME280;41619;42.816;23.226;2023-04-10T13:35:59;95437.81;;;9.96;58.61
55315;BME280;41619;42.816;23.226;2023-04-10T13:38:24;95431.41;;;10.08;57.67
55315;BME280;41619;42.816;23.226;2023-04-10T13:40:51;95420.66;;;10.18;57.21
55315;BME280;41619;42.816;23.226;2023-04-10T13:43:16;95426.03;;;10.34;56.70
55315;BME280;41619;42.816;23.226;2023-04-10T13:45:41;95425.56;;;10.51;56.58
55315;BME280;41619;42.816;23.226;2023-04-10T13:48:07;95419.50;;;10.61;56.17